Time,TemperatureF,DewpointF,PressureIn,WindDirection,WindDirectionDegrees,WindSpeedMPH,WindSpeedGustMPH,Humidity,HourlyPrecipIn,Conditions,Clouds,dailyrainin,SoftwareType,DateUTC
2013-08-30 01:22:00,49.0,46.0,29.84,SSW,194,0.0,0.0,88,0.00,,,0.02,,2013-08-30 09:22:00,
2013-08-30 01:33:00,49.0,46.0,29.84,SSW,194,0.0,0.0,88,0.00,,,0.02,,2013-08-30 09:33:00,
2013-08-30 01:44:00,49.0,46.0,29.84,SSW,194,0.0,0.0,88,0.00,,,0.02,,2013-08-30 09:44:00,
2013-08-30 01:53:00,49.0,46.0,29.84,SSW,194,0.0,0.0,89,0.00,,,0.02,,2013-08-30 09:53:00,
2013-08-30 02:03:00,49.0,46.0,29.84,SSW,194,0.0,0.0,89,0.00,,,0.02,,2013-08-30 10:03:00,
2013-08-30 02:12:00,49.0,46.0,29.84,SSW,194,0.0,0.0,89,0.00,,,0.02,,2013-08-30 10:12:00,
2013-08-30 02:23:00,49.0,46.0,29.84,SSW,194,0.0,0.0,90,0.00,,,0.02,,2013-08-30 10:23:00,
2013-08-30 02:32:00,49.0,46.0,29.84,SSW,194,0.0,0.0,90,0.00,,,0.02,,2013-08-30 10:32:00,
2013-08-30 02:53:00,48.0,45.0,29.83,SSW,194,0.0,1.0,88,0.00,,,0.01,,2013-08-30 10:53:00,
2013-08-30 03:02:00,48.0,45.0,29.83,SSW,194,0.0,1.0,88,0.00,,,0.01,,2013-08-30 11:02:00,
2013-08-30 03:12:00,48.0,45.0,29.83,SSW,194,0.0,1.0,88,0.00,,,0.01,,2013-08-30 11:12:00,
2013-08-30 03:22:00,48.0,44.0,29.84,SSE,163,0.0,1.0,87,0.00,,,0.01,,2013-08-30 11:22:00,
2013-08-30 03:31:00,48.0,44.0,29.84,SSE,161,0.0,2.0,85,0.00,,,0.01,,2013-08-30 11:31:00,
2013-08-30 03:32:00,48.0,44.0,29.84,SSE,163,0.0,1.0,87,0.00,,,0.01,,2013-08-30 11:32:00,
2013-08-30 03:52:00,48.0,44.0,29.84,SSE,161,0.0,2.0,85,0.00,,,0.01,,2013-08-30 11:52:00,
2013-08-30 04:01:00,48.0,44.0,29.84,SSE,161,0.0,2.0,85,0.00,,,0.01,,2013-08-30 12:01:00,
2013-08-30 04:12:00,48.0,44.0,29.84,SSE,161,0.0,2.0,85,0.00,,,0.01,,2013-08-30 12:12:00,
2013-08-30 04:21:00,48.0,44.0,29.84,SSE,161,0.0,2.0,85,0.00,,,0.01,,2013-08-30 12:21:00,
2013-08-30 04:31:00,47.0,43.0,29.84,East,98,0.0,1.0,86,0.00,,,0.00,,2013-08-30 12:31:00,
2013-08-30 04:52:00,47.0,43.0,29.84,East,98,0.0,1.0,86,0.00,,,0.00,,2013-08-30 12:52:00,
2013-08-30 05:11:00,47.0,43.0,29.84,East,98,0.0,1.0,86,0.00,,,0.00,,2013-08-30 13:11:00,
2013-08-30 05:21:00,47.0,43.0,29.84,East,98,0.0,1.0,86,0.00,,,0.00,,2013-08-30 13:21:00,
2013-08-30 07:54:00,46.0,43.0,29.87,East,98,0.0,0.0,89,0.00,,,0.00,,2013-08-30 15:54:00,
2013-08-30 08:05:00,46.0,43.0,29.87,East,98,0.0,0.0,89,0.00,,,0.00,,2013-08-30 16:05:00,
2013-08-30 08:13:00,46.0,43.0,29.87,East,98,0.0,0.0,89,0.00,,,0.00,,2013-08-30 16:13:00,
2013-08-30 08:24:00,46.0,43.0,29.87,East,98,0.0,0.0,90,0.00,,,0.00,,2013-08-30 16:24:00,
2013-08-30 08:33:00,46.0,43.0,29.87,East,98,0.0,0.0,90,0.00,,,0.00,,2013-08-30 16:33:00,
2013-08-30 08:43:00,46.0,43.0,29.87,East,98,0.0,0.0,90,0.00,,,0.00,,2013-08-30 16:43:00,
2013-08-30 08:53:00,47.0,44.0,29.88,East,98,0.0,0.0,89,0.00,,,0.00,,2013-08-30 16:53:00,
2013-08-30 09:01:00,48.0,45.0,29.88,East,98,0.0,0.0,88,0.00,,,0.00,,2013-08-30 17:01:00,
2013-08-30 09:03:00,47.0,44.0,29.88,East,98,0.0,0.0,89,0.00,,,0.00,,2013-08-30 17:03:00,
2013-08-30 09:13:00,47.0,44.0,29.88,East,98,0.0,0.0,89,0.00,,,0.00,,2013-08-30 17:13:00,
2013-08-30 09:23:00,48.0,45.0,29.88,East,98,0.0,0.0,88,0.00,,,0.00,,2013-08-30 17:23:00,
2013-08-30 09:34:00,48.0,45.0,29.88,East,98,0.0,0.0,88,0.00,,,0.00,,2013-08-30 17:34:00,
2013-08-30 09:53:00,48.0,45.0,29.88,East,98,0.0,0.0,88,0.00,,,0.00,,2013-08-30 17:53:00,
2013-08-30 10:01:00,49.0,44.0,29.89,East,98,0.0,1.0,82,0.00,,,0.00,,2013-08-30 18:01:00,
2013-08-30 10:22:00,49.0,44.0,29.89,East,98,0.0,1.0,82,0.00,,,0.00,,2013-08-30 18:22:00,
2013-08-30 10:32:00,49.0,44.0,29.89,East,98,0.0,1.0,82,0.00,,,0.00,,2013-08-30 18:32:00,
2013-08-30 10:52:00,49.0,44.0,29.89,East,98,0.0,1.0,82,0.00,,,0.00,,2013-08-30 18:52:00,
2013-08-30 11:22:00,50.0,44.0,29.90,SSE,168,0.0,0.0,81,0.00,,,0.00,,2013-08-30 19:22:00,
2013-08-30 11:32:00,50.0,44.0,29.90,SSE,168,0.0,0.0,81,0.00,,,0.00,,2013-08-30 19:32:00,
2013-08-30 11:53:00,52.0,45.0,29.90,SSE,168,0.0,0.0,78,0.00,,,0.00,,2013-08-30 19:53:00,
2013-08-30 12:02:00,52.0,45.0,29.90,SSE,168,0.0,0.0,78,0.00,,,0.00,,2013-08-30 20:02:00,
2013-08-30 12:11:00,52.0,45.0,29.90,SSE,168,0.0,0.0,78,0.00,,,0.00,,2013-08-30 20:11:00,
2013-08-30 12:22:00,53.0,45.0,29.90,SSE,168,0.0,0.0,74,0.00,,,0.00,,2013-08-30 20:22:00,
2013-08-30 12:31:00,54.0,46.0,29.91,SSE,168,0.0,1.0,73,0.00,,,0.00,,2013-08-30 20:31:00,
2013-08-30 12:32:00,53.0,45.0,29.90,SSE,168,0.0,0.0,74,0.00,,,0.00,,2013-08-30 20:32:00,
2013-08-30 12:52:00,54.0,46.0,29.91,SSE,168,0.0,1.0,73,0.00,,,0.00,,2013-08-30 20:52:00,
2013-08-30 13:02:00,54.0,46.0,29.91,SSE,168,0.0,1.0,73,0.00,,,0.00,,2013-08-30 21:02:00,
2013-08-30 13:11:00,54.0,46.0,29.91,SSE,168,0.0,1.0,73,0.00,,,0.00,,2013-08-30 21:11:00,
2013-08-30 13:21:00,54.0,46.0,29.91,SSE,168,0.0,1.0,73,0.00,,,0.00,,2013-08-30 21:21:00,
2013-08-30 13:31:00,55.0,48.0,29.91,SSW,198,0.0,0.0,76,0.00,,,0.00,,2013-08-30 21:31:00,
2013-08-30 13:55:00,55.0,48.0,29.91,SSW,198,0.0,0.0,76,0.00,,,0.00,,2013-08-30 21:55:00,
2013-08-30 14:04:00,55.0,48.0,29.91,SSW,198,0.0,0.0,76,0.00,,,0.00,,2013-08-30 22:04:00,
2013-08-30 14:13:00,55.0,48.0,29.91,SSW,198,0.0,0.0,76,0.00,,,0.00,,2013-08-30 22:13:00,
2013-08-30 14:24:00,55.0,48.0,29.91,SSW,198,0.0,0.0,76,0.00,,,0.00,,2013-08-30 22:24:00,
2013-08-30 14:54:00,55.0,49.0,29.91,SSW,198,0.0,0.0,81,0.00,,,0.00,,2013-08-30 22:54:00,
2013-08-30 15:01:00,54.0,47.0,29.91,SSW,197,0.0,2.0,76,0.00,,,0.00,,2013-08-30 23:01:00,
2013-08-30 15:03:00,55.0,49.0,29.91,SSW,198,0.0,0.0,81,0.00,,,0.00,,2013-08-30 23:03:00,
2013-08-30 15:22:00,54.0,47.0,29.91,SSW,197,0.0,2.0,76,0.00,,,0.00,,2013-08-30 23:22:00,
2013-08-30 15:33:00,54.0,47.0,29.91,SSW,197,0.0,2.0,76,0.00,,,0.00,,2013-08-30 23:33:00,
2013-08-30 15:42:00,54.0,47.0,29.91,SSW,197,0.0,2.0,76,0.00,,,0.00,,2013-08-30 23:42:00,
2013-08-30 15:53:00,54.0,47.0,29.91,SSW,197,0.0,2.0,76,0.00,,,0.00,,2013-08-30 23:53:00,
2013-08-30 16:22:00,55.0,48.0,29.91,SSW,197,0.0,0.0,78,0.00,,,0.00,,2013-08-31 00:22:00,
2013-08-30 16:31:00,56.0,49.0,29.91,SSW,197,0.0,0.0,78,0.00,,,0.00,,2013-08-31 00:31:00,
2013-08-30 16:32:00,55.0,48.0,29.91,SSW,197,0.0,0.0,78,0.00,,,0.00,,2013-08-31 00:32:00,
2013-08-30 16:52:00,56.0,49.0,29.91,SSW,197,0.0,0.0,78,0.00,,,0.00,,2013-08-31 00:52:00,
2013-08-30 17:01:00,56.0,49.0,29.91,SSW,197,0.0,0.0,78,0.00,,,0.00,,2013-08-31 01:01:00,
2013-08-30 17:11:00,56.0,49.0,29.91,SSW,197,0.0,0.0,78,0.00,,,0.00,,2013-08-31 01:11:00,
2013-08-30 17:21:00,56.0,49.0,29.91,SSW,197,0.0,0.0,78,0.00,,,0.00,,2013-08-31 01:21:00,
2013-08-30 17:52:00,54.0,47.0,29.91,SE,139,4.0,4.0,78,0.00,,,0.00,,2013-08-31 01:52:00,
2013-08-30 18:01:00,54.0,47.0,29.91,SE,143,0.0,4.0,77,0.00,,,0.00,,2013-08-31 02:01:00,
2013-08-30 18:02:00,54.0,47.0,29.91,SE,139,4.0,4.0,78,0.00,,,0.00,,2013-08-31 02:02:00,
2013-08-30 18:12:00,54.0,47.0,29.91,SE,139,4.0,4.0,78,0.00,,,0.00,,2013-08-31 02:12:00,
2013-08-30 18:22:00,54.0,47.0,29.91,SE,143,0.0,4.0,77,0.00,,,0.00,,2013-08-31 02:22:00,
2013-08-30 18:32:00,54.0,47.0,29.91,SE,143,0.0,4.0,77,0.00,,,0.00,,2013-08-31 02:32:00,
2013-08-30 18:42:00,54.0,47.0,29.91,SE,143,0.0,4.0,77,0.00,,,0.00,,2013-08-31 02:42:00,
2013-08-30 18:52:00,54.0,47.0,29.91,SE,143,0.0,4.0,77,0.00,,,0.00,,2013-08-31 02:52:00,
2013-08-30 19:22:00,52.0,45.0,29.91,SE,135,0.0,2.0,78,0.00,,,0.00,,2013-08-31 03:22:00,
2013-08-30 19:34:00,52.0,45.0,29.91,SE,135,0.0,2.0,78,0.00,,,0.00,,2013-08-31 03:34:00,
2013-08-30 19:54:00,52.0,46.0,29.90,SE,135,0.0,2.0,81,0.00,,,0.00,,2013-08-31 03:54:00,
2013-08-30 20:05:00,52.0,46.0,29.90,SE,135,0.0,2.0,81,0.00,,,0.00,,2013-08-31 04:05:00,
2013-08-30 20:14:00,52.0,46.0,29.90,SE,135,0.0,2.0,81,0.00,,,0.00,,2013-08-31 04:14:00,
2013-08-30 20:24:00,52.0,46.0,29.90,SE,135,0.0,1.0,81,0.00,,,0.00,,2013-08-31 04:24:00,
2013-08-30 20:34:00,52.0,46.0,29.90,SE,135,0.0,1.0,81,0.00,,,0.00,,2013-08-31 04:34:00,
2013-08-30 20:54:00,51.0,45.0,29.90,ESE,115,0.0,4.0,80,0.00,,,0.00,,2013-08-31 04:54:00,
2013-08-30 21:04:00,51.0,45.0,29.90,ESE,115,0.0,4.0,80,0.00,,,0.00,,2013-08-31 05:04:00,
2013-08-30 21:13:00,51.0,45.0,29.90,ESE,115,0.0,4.0,80,0.00,,,0.00,,2013-08-31 05:13:00,
2013-08-30 21:23:00,51.0,46.0,29.90,ESE,115,0.0,2.0,82,0.00,,,0.00,,2013-08-31 05:23:00,
2013-08-30 21:31:00,50.0,44.0,29.90,ESE,115,0.0,1.0,81,0.00,,,0.00,,2013-08-31 05:31:00,
2013-08-30 21:34:00,51.0,46.0,29.90,ESE,115,0.0,2.0,82,0.00,,,0.00,,2013-08-31 05:34:00,
2013-08-30 21:43:00,51.0,46.0,29.90,ESE,115,0.0,2.0,82,0.00,,,0.00,,2013-08-31 05:43:00,
2013-08-30 21:52:00,50.0,44.0,29.90,ESE,115,0.0,1.0,81,0.00,,,0.00,,2013-08-31 05:52:00,
2013-08-30 22:02:00,50.0,44.0,29.90,ESE,115,0.0,1.0,81,0.00,,,0.00,,2013-08-31 06:02:00,
2013-08-30 22:12:00,50.0,44.0,29.90,ESE,115,0.0,1.0,81,0.00,,,0.00,,2013-08-31 06:12:00,
2013-08-30 22:22:00,50.0,44.0,29.90,ESE,115,0.0,1.0,81,0.00,,,0.00,,2013-08-31 06:22:00,
2013-08-30 23:01:00,48.0,44.0,29.90,NNE,26,0.0,2.0,85,0.00,,,0.00,,2013-08-31 07:01:00,
2013-08-30 23:22:00,48.0,44.0,29.90,NNE,26,0.0,2.0,85,0.00,,,0.00,,2013-08-31 07:22:00,
2013-08-30 23:32:00,48.0,44.0,29.90,NNE,26,0.0,2.0,85,0.00,,,0.00,,2013-08-31 07:32:00,
2013-08-30 23:52:00,48.0,44.0,29.90,NNE,26,0.0,2.0,85,0.00,,,0.00,,2013-08-31 07:52:00,